Rickmers Seoul — V7EI5 — position and weather

sailwx.info

Track history (hours):
 
Tides and Currents Weather Stations Pressure Air Temp Water Temp Dewpoint Dewpoint Depression Visibility Wind Speed Wind Dir Waves Ship Positions

Rickmers Seoul

Last reported at 2017-May-08 05:29 UTC. Time now 2017-May-27 00:30 UTC.
Position N 30°58' E 032°19'.
Warning: this ship's position is 18 days out of date.

Length 192.9 m; beam 27.8 m; draft 11.2 m.

Type: Ship (hazmat cat A). MMSI: 538001809.

Date/timePositionNaut miles runAvg speedWind from/ knotsBaromVisibWave heightAir tempDewpointWater temp
2017-May-08 05:29N 30°58' E 032°19'5 9.0
2017-May-08 04:57N 31°03' E 032°19'4 8.2
2017-May-08 04:30N 31°07' E 032°19'6 9.1
2017-May-08 03:53N 31°12' E 032°20'5 7.7
2017-May-08 03:14N 31°17' E 032°22'5 2.5
2017-May-08 01:08N 31°22' E 032°20'0 0.0
2017-May-08 00:50N 31°22' E 032°20'0 0.0
2017-May-08 00:26N 31°22' E 032°20'0 0.0
2017-May-07 23:59N 31°22' E 032°20'0 0.0
2017-May-07 20:50N 31°22' E 032°20'0 0.0
2017-May-07 20:29N 31°22' E 032°20'0 0.3
2017-May-07 19:59N 31°22' E 032°20'11412.5
2017-May-07 10:49N 32°24' E 030°27'  
2017-May-05 02:04N 39°50' E 018°54'812.8
2017-May-05 01:25N 39°58' E 018°50'912.7
2017-May-05 00:43N 40°06' E 018°45'412.6
2017-May-05 00:25N 40°10' E 018°43'1212.9
2017-May-04 23:28N 40°21' E 018°37'613.3
2017-May-04 23:00N 40°27' E 018°34'713.1
2017-May-04 22:27N 40°33' E 018°29'713.4
2017-May-04 21:57N 40°38' E 018°23'613.3
2017-May-04 21:29N 40°42' E 018°17'613.3
2017-May-04 21:00N 40°47' E 018°11'613.1
2017-May-04 20:30N 40°51' E 018°05'23112.5
2017-May-04 02:03N 43°32' E 014°22'112.3
2017-May-04 02:00N 43°32' E 014°21'612.2
2017-May-04 01:30N 43°36' E 014°15'1112.2
2017-May-04 00:37N 43°44' E 014°05'212.2
2017-May-04 00:29N 43°45' E 014°03'612.2
2017-May-04 00:00N 43°49' E 013°57'612.4
2017-May-03 23:30N 43°53' E 013°50'612.3
2017-May-03 23:00N 43°57' E 013°43'612.3
2017-May-03 22:30N 43°60' E 013°36'612.3
2017-May-03 22:00N 44°03' E 013°29'612.3
2017-May-03 21:30N 44°07' E 013°22'612.3
2017-May-03 21:00N 44°10' E 013°15'612.1
2017-May-03 20:30N 44°16' E 013°11'612.4
2017-May-03 20:00N 44°22' E 013°08'612.4
2017-May-03 19:30N 44°28' E 013°05'612.2
2017-May-03 19:00N 44°33' E 013°03'612.0
2017-May-03 18:30N 44°39' E 013°00'612.2
2017-May-03 18:00N 44°45' E 012°57'612.4
2017-May-03 17:30N 44°50' E 012°54'612.4
2017-May-03 17:00N 44°56' E 012°50'612.3
2017-May-03 16:30N 45°01' E 012°45'612.2
2017-May-03 16:00N 45°06' E 012°40'612.1
2017-May-03 15:30N 45°10' E 012°34'612.3
2017-May-03 15:00N 45°15' E 012°29'1110.6
2017-May-03 14:00N 45°21' E 012°16'4 7.1
2017-May-03 13:30N 45°24' E 012°16'3 6.2
2017-May-03 13:01N 45°27' E 012°16'0 0.4
2017-May-03 12:30N 45°28' E 012°15'0 0.0
2017-May-03 12:00N 45°28' E 012°15'0 0.0
2017-May-03 11:30N 45°28' E 012°15'0 0.0
2017-May-03 11:00N 45°28' E 012°15'0 0.0
2017-May-03 10:30N 45°28' E 012°15'0 0.0
2017-May-03 10:00N 45°28' E 012°15'0 0.0
2017-May-03 09:30N 45°28' E 012°15'0 0.0
2017-May-03 09:00N 45°28' E 012°15'0 0.0
2017-May-03 08:30N 45°28' E 012°15'0 0.0
2017-May-03 08:00N 45°28' E 012°15'0 0.0
2017-May-03 07:30N 45°28' E 012°15'0 0.0
2017-May-03 07:00N 45°28' E 012°15'0 0.0
2017-May-03 06:30N 45°28' E 012°15'0 0.0
2017-May-03 06:00N 45°28' E 012°15'0 0.0
2017-May-03 05:30N 45°28' E 012°15'0 0.0
2017-May-03 05:00N 45°28' E 012°15'0 0.0
2017-May-03 04:30N 45°28' E 012°15'0 0.0
2017-May-03 04:00N 45°28' E 012°15'0 0.0
2017-May-03 03:30N 45°28' E 012°15'0 0.0
2017-May-03 03:00N 45°28' E 012°15'0 0.0
2017-May-03 02:30N 45°28' E 012°15'0 0.0
2017-May-03 02:00N 45°28' E 012°15'0 0.0
2017-May-03 01:30N 45°28' E 012°15'0 0.0
2017-May-03 01:00N 45°28' E 012°15'0 0.0
2017-May-03 00:30N 45°28' E 012°15'0 0.0
2017-May-03 00:00N 45°28' E 012°15'0 0.0
2017-May-02 23:30N 45°28' E 012°15'0 0.0
2017-May-02 23:00N 45°28' E 012°15'0 0.0
2017-May-02 22:30N 45°28' E 012°15'0 0.0
2017-May-02 22:00N 45°28' E 012°15'0 0.0
2017-May-02 21:30N 45°28' E 012°15'0 0.0
2017-May-02 21:00N 45°28' E 012°15'0 0.0
2017-May-02 20:30N 45°28' E 012°15'0 0.0
2017-May-02 20:00N 45°28' E 012°15'0 0.0
2017-May-02 19:30N 45°28' E 012°15'0 0.0
2017-May-02 19:00N 45°28' E 012°15'0 0.0
2017-May-02 18:30N 45°28' E 012°15'0 0.0
2017-May-02 18:00N 45°28' E 012°15'0 0.0
2017-May-02 17:30N 45°28' E 012°15'0 0.0
2017-May-02 17:00N 45°28' E 012°15'0 0.0
2017-May-02 16:30N 45°28' E 012°15'0 0.0
2017-May-02 16:00N 45°28' E 012°15'0 0.0
2017-May-02 15:30N 45°28' E 012°15'0 0.0
2017-May-02 15:00N 45°28' E 012°15'0 0.0
2017-May-02 14:30N 45°28' E 012°15'0 0.0
2017-May-02 13:30N 45°28' E 012°15'0 0.0
2017-May-02 13:00N 45°28' E 012°15'0 0.0
2017-May-02 12:27N 45°28' E 012°15'0 0.0
2017-May-02 12:00N 45°28' E 012°15'0 0.0
2017-May-02 11:30N 45°28' E 012°15'0 0.0
2017-May-02 11:00N 45°28' E 012°15'0 0.0
2017-May-02 10:30N 45°28' E 012°15'0 0.0
2017-May-02 10:00N 45°28' E 012°15'0 0.0
2017-May-02 09:30N 45°28' E 012°15'0 0.0
2017-May-02 09:00N 45°28' E 012°15'0 0.0
2017-May-02 08:30N 45°28' E 012°15'0 0.0
2017-May-02 08:00N 45°28' E 012°15'0 0.0
2017-May-02 07:30N 45°28' E 012°15'0 0.0
2017-May-02 07:00N 45°28' E 012°15'0 0.0
2017-May-02 06:30N 45°28' E 012°15'0 0.0
2017-May-02 06:00N 45°28' E 012°15'2 3.4
2017-May-02 05:30N 45°26' E 012°16'4 7.5
2017-May-02 05:00N 45°22' E 012°15'4 8.4
2017-May-02 04:30N 45°20' E 012°21'4 7.3
2017-May-02 04:00N 45°19' E 012°26'3 6.6
2017-May-02 03:30N 45°17' E 012°30'611.4
2017-May-02 03:00N 45°15' E 012°37'611.3
2017-May-02 02:30N 45°11' E 012°43'611.0
2017-May-02 02:00N 45°07' E 012°48'611.7
2017-May-02 01:30N 45°01' E 012°51'611.5
2017-May-02 01:00N 44°57' E 012°55'611.4
2017-May-02 00:30N 44°51' E 012°59'611.4
2017-May-02 00:00N 44°46' E 013°01'510.9
2017-May-01 23:30N 44°41' E 013°03'611.1
2017-May-01 23:00N 44°36' E 013°06'611.0
2017-May-01 22:30N 44°30' E 013°08'611.3
2017-May-01 22:00N 44°25' E 013°11'611.6
2017-May-01 21:30N 44°20' E 013°14'611.2
2017-May-01 21:00N 44°16' E 013°19'611.2
2017-May-01 20:30N 44°12' E 013°25'611.0
2017-May-01 19:59N 44°08' E 013°31'1111.1
2017-May-01 19:00N 44°02' E 013°44'611.4
2017-May-01 18:30N 43°58' E 013°50'611.7
2017-May-01 18:00N 43°55' E 013°56'611.6
2017-May-01 17:30N 43°51' E 014°02'611.8
2017-May-01 17:00N 43°47' E 014°08'711.8
2017-May-01 16:25N 43°42' E 014°16'512.0
2017-May-01 16:00N 43°39' E 014°21'358 7.3
2017-Apr-29 15:18N 37°50' E 016°02'4 8.8
2017-Apr-29 14:54N 37°50' E 015°58'9 9.6
2017-Apr-29 14:00N 37°50' E 015°47'510.5
2017-Apr-29 13:30N 37°51' E 015°41'510.2
2017-Apr-29 13:00N 37°54' E 015°35'510.5
2017-Apr-29 12:30N 37°59' E 015°33'611.7
2017-Apr-29 12:00N 38°05' E 015°34'714.4
2017-Apr-29 11:31N 38°12' E 015°36'714.5
2017-Apr-29 11:01N 38°18' E 015°40'510.6
2017-Apr-29 10:30N 38°22' E 015°35'5 9.5
2017-Apr-29 10:00N 38°26' E 015°31'510.5
2017-Apr-29 09:30N 38°29' E 015°26'510.7
2017-Apr-29 09:00N 38°33' E 015°21'510.7
2017-Apr-29 08:30N 38°37' E 015°17'610.7
2017-Apr-29 07:58N 38°41' E 015°12'510.7
2017-Apr-29 07:30N 38°45' E 015°07'  
Track history (hours):
 
Tides and Currents Weather Stations Pressure Air Temp Water Temp Dewpoint Dewpoint Depression Visibility Wind Speed Wind Dir Waves Ship Positions

Rickmers Seoul

Last reported at 2017-May-08 05:29 UTC. Time now 2017-May-27 00:30 UTC.
Position N 30°58' E 032°19'.
Warning: this ship's position is 18 days out of date.

Length 192.9 m; beam 27.8 m; draft 11.2 m.

Type: Ship (hazmat cat A). MMSI: 538001809.

Date/timePositionNaut miles runAvg speedWind from/ knotsBaromVisibWave heightAir tempDewpointWater temp
2017-May-08 05:29N 30°58' E 032°19'5 9.0
2017-May-08 04:57N 31°03' E 032°19'4 8.2
2017-May-08 04:30N 31°07' E 032°19'6 9.1
2017-May-08 03:53N 31°12' E 032°20'5 7.7
2017-May-08 03:14N 31°17' E 032°22'5 2.5
2017-May-08 01:08N 31°22' E 032°20'0 0.0
2017-May-08 00:50N 31°22' E 032°20'0 0.0
2017-May-08 00:26N 31°22' E 032°20'0 0.0
2017-May-07 23:59N 31°22' E 032°20'0 0.0
2017-May-07 20:50N 31°22' E 032°20'0 0.0
2017-May-07 20:29N 31°22' E 032°20'0 0.3
2017-May-07 19:59N 31°22' E 032°20'11412.5
2017-May-07 10:49N 32°24' E 030°27'  
2017-May-05 02:04N 39°50' E 018°54'812.8
2017-May-05 01:25N 39°58' E 018°50'912.7
2017-May-05 00:43N 40°06' E 018°45'412.6
2017-May-05 00:25N 40°10' E 018°43'1212.9
2017-May-04 23:28N 40°21' E 018°37'613.3
2017-May-04 23:00N 40°27' E 018°34'713.1
2017-May-04 22:27N 40°33' E 018°29'713.4
2017-May-04 21:57N 40°38' E 018°23'613.3
2017-May-04 21:29N 40°42' E 018°17'613.3
2017-May-04 21:00N 40°47' E 018°11'613.1
2017-May-04 20:30N 40°51' E 018°05'23112.5
2017-May-04 02:03N 43°32' E 014°22'112.3
2017-May-04 02:00N 43°32' E 014°21'612.2
2017-May-04 01:30N 43°36' E 014°15'1112.2
2017-May-04 00:37N 43°44' E 014°05'212.2
2017-May-04 00:29N 43°45' E 014°03'612.2
2017-May-04 00:00N 43°49' E 013°57'612.4
2017-May-03 23:30N 43°53' E 013°50'612.3
2017-May-03 23:00N 43°57' E 013°43'612.3
2017-May-03 22:30N 43°60' E 013°36'612.3
2017-May-03 22:00N 44°03' E 013°29'612.3
2017-May-03 21:30N 44°07' E 013°22'612.3
2017-May-03 21:00N 44°10' E 013°15'612.1
2017-May-03 20:30N 44°16' E 013°11'612.4
2017-May-03 20:00N 44°22' E 013°08'612.4
2017-May-03 19:30N 44°28' E 013°05'612.2
2017-May-03 19:00N 44°33' E 013°03'612.0
2017-May-03 18:30N 44°39' E 013°00'612.2
2017-May-03 18:00N 44°45' E 012°57'612.4
2017-May-03 17:30N 44°50' E 012°54'612.4
2017-May-03 17:00N 44°56' E 012°50'612.3
2017-May-03 16:30N 45°01' E 012°45'612.2
2017-May-03 16:00N 45°06' E 012°40'612.1
2017-May-03 15:30N 45°10' E 012°34'612.3
2017-May-03 15:00N 45°15' E 012°29'1110.6
2017-May-03 14:00N 45°21' E 012°16'4 7.1
2017-May-03 13:30N 45°24' E 012°16'3 6.2
2017-May-03 13:01N 45°27' E 012°16'0 0.4
2017-May-03 12:30N 45°28' E 012°15'0 0.0
2017-May-03 12:00N 45°28' E 012°15'0 0.0
2017-May-03 11:30N 45°28' E 012°15'0 0.0
2017-May-03 11:00N 45°28' E 012°15'0 0.0
2017-May-03 10:30N 45°28' E 012°15'0 0.0
2017-May-03 10:00N 45°28' E 012°15'0 0.0
2017-May-03 09:30N 45°28' E 012°15'0 0.0
2017-May-03 09:00N 45°28' E 012°15'0 0.0
2017-May-03 08:30N 45°28' E 012°15'0 0.0
2017-May-03 08:00N 45°28' E 012°15'0 0.0
2017-May-03 07:30N 45°28' E 012°15'0 0.0
2017-May-03 07:00N 45°28' E 012°15'0 0.0
2017-May-03 06:30N 45°28' E 012°15'0 0.0
2017-May-03 06:00N 45°28' E 012°15'0 0.0
2017-May-03 05:30N 45°28' E 012°15'0 0.0
2017-May-03 05:00N 45°28' E 012°15'0 0.0
2017-May-03 04:30N 45°28' E 012°15'0 0.0
2017-May-03 04:00N 45°28' E 012°15'0 0.0
2017-May-03 03:30N 45°28' E 012°15'0 0.0
2017-May-03 03:00N 45°28' E 012°15'0 0.0
2017-May-03 02:30N 45°28' E 012°15'0 0.0
2017-May-03 02:00N 45°28' E 012°15'0 0.0
2017-May-03 01:30N 45°28' E 012°15'0 0.0
2017-May-03 01:00N 45°28' E 012°15'0 0.0
2017-May-03 00:30N 45°28' E 012°15'0 0.0
2017-May-03 00:00N 45°28' E 012°15'0 0.0
2017-May-02 23:30N 45°28' E 012°15'0 0.0
2017-May-02 23:00N 45°28' E 012°15'0 0.0
2017-May-02 22:30N 45°28' E 012°15'0 0.0
2017-May-02 22:00N 45°28' E 012°15'0 0.0
2017-May-02 21:30N 45°28' E 012°15'0 0.0
2017-May-02 21:00N 45°28' E 012°15'0 0.0
2017-May-02 20:30N 45°28' E 012°15'0 0.0
2017-May-02 20:00N 45°28' E 012°15'0 0.0
2017-May-02 19:30N 45°28' E 012°15'0 0.0
2017-May-02 19:00N 45°28' E 012°15'0 0.0
2017-May-02 18:30N 45°28' E 012°15'0 0.0
2017-May-02 18:00N 45°28' E 012°15'0 0.0
2017-May-02 17:30N 45°28' E 012°15'0 0.0
2017-May-02 17:00N 45°28' E 012°15'0 0.0
2017-May-02 16:30N 45°28' E 012°15'0 0.0
2017-May-02 16:00N 45°28' E 012°15'0 0.0
2017-May-02 15:30N 45°28' E 012°15'0 0.0
2017-May-02 15:00N 45°28' E 012°15'0 0.0
2017-May-02 14:30N 45°28' E 012°15'0 0.0
2017-May-02 13:30N 45°28' E 012°15'0 0.0
2017-May-02 13:00N 45°28' E 012°15'0 0.0
2017-May-02 12:27N 45°28' E 012°15'0 0.0
2017-May-02 12:00N 45°28' E 012°15'0 0.0
2017-May-02 11:30N 45°28' E 012°15'0 0.0
2017-May-02 11:00N 45°28' E 012°15'0 0.0
2017-May-02 10:30N 45°28' E 012°15'0 0.0
2017-May-02 10:00N 45°28' E 012°15'0 0.0
2017-May-02 09:30N 45°28' E 012°15'0 0.0
2017-May-02 09:00N 45°28' E 012°15'0 0.0
2017-May-02 08:30N 45°28' E 012°15'0 0.0
2017-May-02 08:00N 45°28' E 012°15'0 0.0
2017-May-02 07:30N 45°28' E 012°15'0 0.0
2017-May-02 07:00N 45°28' E 012°15'0 0.0
2017-May-02 06:30N 45°28' E 012°15'0 0.0
2017-May-02 06:00N 45°28' E 012°15'2 3.4
2017-May-02 05:30N 45°26' E 012°16'4 7.5
2017-May-02 05:00N 45°22' E 012°15'4 8.4
2017-May-02 04:30N 45°20' E 012°21'4 7.3
2017-May-02 04:00N 45°19' E 012°26'3 6.6
2017-May-02 03:30N 45°17' E 012°30'611.4
2017-May-02 03:00N 45°15' E 012°37'611.3
2017-May-02 02:30N 45°11' E 012°43'611.0
2017-May-02 02:00N 45°07' E 012°48'611.7
2017-May-02 01:30N 45°01' E 012°51'611.5
2017-May-02 01:00N 44°57' E 012°55'611.4
2017-May-02 00:30N 44°51' E 012°59'611.4
2017-May-02 00:00N 44°46' E 013°01'510.9
2017-May-01 23:30N 44°41' E 013°03'611.1
2017-May-01 23:00N 44°36' E 013°06'611.0
2017-May-01 22:30N 44°30' E 013°08'611.3
2017-May-01 22:00N 44°25' E 013°11'611.6
2017-May-01 21:30N 44°20' E 013°14'611.2
2017-May-01 21:00N 44°16' E 013°19'611.2
2017-May-01 20:30N 44°12' E 013°25'611.0
2017-May-01 19:59N 44°08' E 013°31'1111.1
2017-May-01 19:00N 44°02' E 013°44'611.4
2017-May-01 18:30N 43°58' E 013°50'611.7
2017-May-01 18:00N 43°55' E 013°56'611.6
2017-May-01 17:30N 43°51' E 014°02'611.8
2017-May-01 17:00N 43°47' E 014°08'711.8
2017-May-01 16:25N 43°42' E 014°16'512.0
2017-May-01 16:00N 43°39' E 014°21'358 7.3
2017-Apr-29 15:18N 37°50' E 016°02'4 8.8
2017-Apr-29 14:54N 37°50' E 015°58'9 9.6
2017-Apr-29 14:00N 37°50' E 015°47'510.5
2017-Apr-29 13:30N 37°51' E 015°41'510.2
2017-Apr-29 13:00N 37°54' E 015°35'510.5
2017-Apr-29 12:30N 37°59' E 015°33'611.7
2017-Apr-29 12:00N 38°05' E 015°34'714.4
2017-Apr-29 11:31N 38°12' E 015°36'714.5
2017-Apr-29 11:01N 38°18' E 015°40'510.6
2017-Apr-29 10:30N 38°22' E 015°35'5 9.5
2017-Apr-29 10:00N 38°26' E 015°31'510.5
2017-Apr-29 09:30N 38°29' E 015°26'510.7
2017-Apr-29 09:00N 38°33' E 015°21'510.7
2017-Apr-29 08:30N 38°37' E 015°17'610.7
2017-Apr-29 07:58N 38°41' E 015°12'510.7
2017-Apr-29 07:30N 38°45' E 015°07'  

Dump ship's entire track history